Terminal Aerodrome Forecast
Issued by NWS

Home | Current Version | Previous Version | Text Only | Print | Product List | Glossary On
Versions: 1 2 3 4 5 6 7 8 9 10 11 12 13 14 15 16 17 18 19 20 21 22 23 24 25 26 27 28 29
000
FTUS41 KOKX 252337
TAFSWF
TAF
KSWF 252337Z 2600/2706 VRB02KT 2SM BR OVC003
      TEMPO 2600/2603 1SM BR
     FM260300 VRB02KT 2SM BR OVC003
      TEMPO 2603/2605 3SM BR SCT003 OVC200
     FM260500 VRB03KT 4SM BR OVC200
     FM260800 29004KT P6SM OVC200
     FM261500 30009KT P6SM BKN120 OVC200
     FM261800 30012G18KT P6SM SKC
     FM262200 30010KT P6SM SKC
     FM270000 30007KT P6SM SKC
      AMD NOT SKED=

USA.gov is the U.S. government's official web portal to all federal, state and local government web resources and services.